createdAt,value
2022-09-22T00:00:59.691Z,101081.84
2022-09-22T00:03:29.420Z,101082.75
2022-09-22T00:06:00.757Z,101079.22
2022-09-22T00:08:28.675Z,101084.50
2022-09-22T00:11:16.943Z,101077.50
2022-09-22T00:13:45.778Z,101084.53
2022-09-22T00:16:13.927Z,101082.78
2022-09-22T00:18:40.361Z,101090.72
2022-09-22T00:21:12.968Z,101087.19
2022-09-22T00:23:41.175Z,101089.84
2022-09-22T00:26:10.378Z,101084.53
2022-09-22T00:28:41.623Z,101084.56
2022-09-22T00:31:17.560Z,101092.47
2022-09-22T00:33:46.204Z,101091.59
2022-09-22T00:36:13.774Z,101084.56
2022-09-22T00:38:41.073Z,101085.44
2022-09-22T00:41:10.360Z,101084.56
2022-09-22T00:43:38.646Z,101085.47
2022-09-22T00:46:38.589Z,101083.69
2022-09-22T00:49:08.417Z,101086.34
2022-09-22T00:51:37.969Z,101080.16
2022-09-22T00:54:08.675Z,101088.09
2022-09-22T00:56:41.919Z,101081.03
2022-09-22T00:59:14.291Z,101075.75
2022-09-22T01:01:40.983Z,101071.34
2022-09-22T01:04:07.680Z,101074.88
2022-09-22T01:06:35.974Z,101068.72
2022-09-22T01:09:02.966Z,101057.28
2022-09-22T01:11:29.761Z,101066.09
2022-09-22T01:14:37.847Z,101064.31
2022-09-22T01:17:28.130Z,101059.94
2022-09-22T01:20:06.934Z,101062.56
2022-09-22T01:22:49.401Z,101062.56
2022-09-22T01:25:34.293Z,101065.19
2022-09-22T01:28:23.724Z,101057.25
2022-09-22T01:31:12.671Z,101063.44
2022-09-22T01:33:49.404Z,101053.75
2022-09-22T01:36:25.046Z,101052.88
2022-09-22T01:38:59.851Z,101058.16
2022-09-22T01:41:42.495Z,101059.00
2022-09-22T01:44:21.565Z,101052.88
2022-09-22T01:46:55.826Z,101059.00
2022-09-22T01:49:24.705Z,101055.50
2022-09-22T01:51:57.907Z,101051.09
2022-09-22T01:54:32.995Z,101053.75
2022-09-22T01:57:20.263Z,101052.88
2022-09-22T01:59:54.107Z,101048.47
2022-09-22T02:02:30.077Z,101049.34
2022-09-22T02:05:02.566Z,101057.25
2022-09-22T02:07:33.928Z,101047.59
2022-09-22T02:10:05.708Z,101059.91
2022-09-22T02:12:32.183Z,101043.19
2022-09-22T02:14:58.601Z,101049.34
2022-09-22T02:17:25.004Z,101041.41
2022-09-22T02:19:52.190Z,101044.94
2022-09-22T02:22:18.714Z,101045.78
2022-09-22T02:24:46.746Z,101043.16
2022-09-22T02:27:26.243Z,101041.38
2022-09-22T02:30:10.783Z,101044.03
2022-09-22T02:32:41.203Z,101044.03
2022-09-22T02:35:08.898Z,101036.13
2022-09-22T02:37:50.733Z,101042.25
2022-09-22T02:40:22.596Z,101041.38
2022-09-22T02:43:19.991Z,101036.91
2022-09-22T02:45:55.491Z,101042.19
2022-09-22T02:48:26.221Z,101041.38
2022-09-22T02:50:54.458Z,101038.72
2022-09-22T02:53:21.018Z,101039.59
2022-09-22T02:55:48.424Z,101033.38
2022-09-22T02:58:16.212Z,101032.50
2022-09-22T03:00:44.022Z,101034.22
2022-09-22T03:03:13.031Z,101031.59
2022-09-22T03:05:39.866Z,101031.63
2022-09-22T03:08:06.574Z,101032.47
2022-09-22T03:10:33.574Z,101029.81
2022-09-22T03:13:16.025Z,101023.63
2022-09-22T03:15:44.138Z,101019.22
2022-09-22T03:18:10.525Z,101018.34
2022-09-22T03:20:36.878Z,101020.09
2022-09-22T03:23:03.272Z,101013.06
2022-09-22T03:25:29.619Z,101013.94
2022-09-22T03:27:55.947Z,101010.44
2022-09-22T03:30:22.360Z,101011.31
2022-09-22T03:32:48.705Z,101009.56
2022-09-22T03:35:15.128Z,101009.56
2022-09-22T03:37:41.458Z,101006.03
2022-09-22T03:40:08.104Z,101006.06
2022-09-22T03:42:35.246Z,101001.66
2022-09-22T03:45:03.109Z,101015.66
2022-09-22T03:47:29.876Z,101009.50
2022-09-22T03:49:56.223Z,101007.81
2022-09-22T03:52:22.986Z,100998.09
2022-09-22T03:54:49.890Z,101008.59
2022-09-22T03:57:16.230Z,101011.28
2022-09-22T03:59:42.614Z,101013.91
2022-09-22T04:02:09.105Z,101008.63
2022-09-22T04:04:35.491Z,101002.41
2022-09-22T04:07:07.133Z,101016.50
2022-09-22T04:09:34.060Z,101005.06
2022-09-22T04:12:00.878Z,101012.09
2022-09-22T04:14:27.620Z,101008.59
2022-09-22T04:16:54.287Z,101004.19
2022-09-22T04:19:21.148Z,100998.91
2022-09-22T04:21:47.541Z,101005.06
2022-09-22T04:24:13.877Z,101004.22
2022-09-22T04:26:51.586Z,101006.00
2022-09-22T04:29:26.622Z,101001.81
2022-09-22T04:31:52.990Z,101007.88
2022-09-22T04:34:19.456Z,101006.09
2022-09-22T04:36:45.845Z,101011.38
2022-09-22T04:39:12.280Z,101002.56
2022-09-22T04:41:38.852Z,101003.41
2022-09-22T04:44:05.222Z,100999.84
2022-09-22T04:46:31.640Z,101005.06
2022-09-22T04:48:58.114Z,101002.44
2022-09-22T04:51:24.461Z,101000.66
2022-09-22T04:53:50.792Z,101004.19
2022-09-22T04:56:17.492Z,101004.19
2022-09-22T04:58:43.980Z,101005.00
2022-09-22T05:01:10.472Z,101011.19
2022-09-22T05:03:38.878Z,101011.19
2022-09-22T05:06:06.490Z,101003.31
2022-09-22T05:08:32.881Z,101013.84
2022-09-22T05:10:59.721Z,101005.94
2022-09-22T05:13:26.071Z,101005.13
2022-09-22T05:15:52.741Z,101014.72
2022-09-22T05:18:19.127Z,101019.06
2022-09-22T05:20:45.786Z,101014.66
2022-09-22T05:23:12.117Z,101017.28
2022-09-22T05:25:39.085Z,101018.16
2022-09-22T05:28:05.480Z,101022.63
2022-09-22T05:30:31.949Z,101024.31
2022-09-22T05:32:58.320Z,101032.28
2022-09-22T05:35:25.663Z,101028.78
2022-09-22T05:37:53.142Z,101028.78
2022-09-22T05:40:20.467Z,101026.13
2022-09-22T05:42:49.506Z,101032.34
2022-09-22T05:45:16.907Z,101034.13
2022-09-22T05:47:44.005Z,101021.81
2022-09-22T05:50:12.132Z,101026.25
2022-09-22T05:52:38.818Z,101032.41
2022-09-22T05:55:05.931Z,101032.41
2022-09-22T05:57:32.723Z,101027.19
2022-09-22T05:59:59.526Z,101036.03
2022-09-22T06:02:26.836Z,101022.84
2022-09-22T06:04:54.001Z,101030.81
2022-09-22T06:07:21.417Z,101038.72
2022-09-22T06:09:48.893Z,101035.25
2022-09-22T06:12:15.898Z,101037.88
2022-09-22T06:14:42.683Z,101035.25
2022-09-22T06:17:11.657Z,101029.13
2022-09-22T06:19:39.020Z,101027.34
2022-09-22T06:22:05.720Z,101037.91
2022-09-22T06:24:32.083Z,101029.97
2022-09-22T06:26:58.715Z,101025.56
2022-09-22T06:29:25.951Z,101029.09
2022-09-22T06:31:52.437Z,101031.75
2022-09-22T06:34:18.950Z,101023.81
2022-09-22T06:36:45.350Z,101023.78
2022-09-22T06:39:13.034Z,101018.50
2022-09-22T06:41:39.422Z,101019.34
2022-09-22T06:44:06.706Z,101018.47
2022-09-22T06:46:34.087Z,101013.13
2022-09-22T06:49:00.891Z,101009.59
2022-09-22T06:51:30.436Z,101013.00
2022-09-22T06:53:56.841Z,101013.91
2022-09-22T06:56:25.404Z,101009.41
2022-09-22T06:59:09.533Z,101018.13
2022-09-22T07:01:37.434Z,101016.34
2022-09-22T07:04:04.662Z,101011.78
2022-09-22T07:06:31.335Z,101016.25
2022-09-22T07:08:57.761Z,101013.59
2022-09-22T07:11:24.365Z,101012.63
2022-09-22T07:13:53.441Z,101010.75
2022-09-22T07:16:22.135Z,101012.56
2022-09-22T07:18:54.343Z,101019.47
2022-09-22T07:21:24.611Z,101009.78
2022-09-22T07:23:53.715Z,101018.59
2022-09-22T07:26:26.443Z,101014.06
2022-09-22T07:28:56.139Z,101024.44
2022-09-22T07:31:28.414Z,101009.94
2022-09-22T07:33:55.493Z,101016.00
2022-09-22T07:36:24.018Z,101023.09
2022-09-22T07:38:52.232Z,101025.41
2022-09-22T07:41:29.634Z,101021.06
2022-09-22T07:44:18.164Z,101026.09
2022-09-22T07:46:45.436Z,101020.53
2022-09-22T07:49:11.859Z,101015.25
2022-09-22T07:51:38.726Z,101015.06
2022-09-22T07:54:07.636Z,101016.00
2022-09-22T07:56:35.951Z,101012.22
2022-09-22T07:59:05.201Z,101016.81
2022-09-22T08:01:34.673Z,101011.88
2022-09-22T08:04:01.647Z,101012.53
2022-09-22T08:06:28.750Z,101012.00
2022-09-22T08:08:56.645Z,101011.28
2022-09-22T08:11:26.287Z,101014.19
2022-09-22T08:13:57.086Z,101003.81
2022-09-22T08:16:28.085Z,101007.75
2022-09-22T08:18:56.644Z,101007.94
2022-09-22T08:21:27.738Z,101007.44
2022-09-22T08:23:54.325Z,101005.53
2022-09-22T08:26:21.351Z,101012.03
2022-09-22T08:28:52.476Z,101008.53
2022-09-22T08:31:22.725Z,101013.66
2022-09-22T08:33:50.189Z,101004.22
2022-09-22T08:36:16.722Z,101006.44
2022-09-22T08:38:43.729Z,100999.19
2022-09-22T08:41:15.394Z,100999.59
2022-09-22T08:43:55.295Z,100999.47
2022-09-22T08:46:29.601Z,101001.72
2022-09-22T08:49:22.104Z,101003.72
2022-09-22T08:51:54.900Z,100991.81
2022-09-22T08:54:31.441Z,100997.16
2022-09-22T08:57:21.400Z,101003.00
2022-09-22T09:00:11.560Z,100999.94
2022-09-22T09:03:17.803Z,100994.81
2022-09-22T09:06:04.125Z,100994.09
2022-09-22T09:08:42.130Z,100993.94
2022-09-22T09:11:30.052Z,100990.19
2022-09-22T09:14:12.123Z,100989.31
2022-09-22T09:16:48.096Z,100980.25
2022-09-22T09:19:23.496Z,100985.06
2022-09-22T09:21:52.932Z,100987.31
2022-09-22T09:27:21.639Z,100981.63
2022-09-22T09:30:18.466Z,100980.41
2022-09-22T09:32:52.685Z,100979.31
2022-09-22T09:35:26.994Z,100973.31
2022-09-22T09:37:59.422Z,100981.09
2022-09-22T09:40:25.945Z,100974.25
2022-09-22T09:43:03.600Z,100971.69
2022-09-22T09:45:54.907Z,100971.09
2022-09-22T09:48:46.643Z,100965.66
2022-09-22T09:51:14.179Z,100966.19
2022-09-22T09:53:45.775Z,100955.72
2022-09-22T09:56:33.272Z,100951.59
2022-09-22T09:59:23.031Z,100954.59
2022-09-22T10:01:51.754Z,100955.38
2022-09-22T10:04:28.685Z,100957.34
2022-09-22T10:07:16.652Z,100953.16
2022-09-22T10:09:44.604Z,100945.88
2022-09-22T10:12:32.780Z,100935.69
2022-09-22T10:15:01.267Z,100941.41
2022-09-22T10:17:30.762Z,100937.47
2022-09-22T10:20:17.373Z,100936.22
2022-09-22T10:22:44.242Z,100933.41
2022-09-22T10:25:24.238Z,100932.31
2022-09-22T10:28:05.484Z,100936.41
2022-09-22T10:30:33.146Z,100924.34
2022-09-22T10:33:04.981Z,100924.06
2022-09-22T10:35:33.631Z,100919.47
2022-09-22T10:38:09.802Z,100921.03
2022-09-22T10:40:39.171Z,100923.72
2022-09-22T10:43:14.204Z,100910.09
2022-09-22T10:45:47.542Z,100915.31
2022-09-22T10:48:38.537Z,100913.09
2022-09-22T10:51:15.816Z,100908.38
2022-09-22T10:54:07.811Z,100907.25
2022-09-22T10:56:39.487Z,100902.31
2022-09-22T10:59:08.852Z,100907.66
2022-09-22T11:02:12.902Z,100904.13
2022-09-22T11:05:10.284Z,100895.22
2022-09-22T11:08:23.520Z,100894.03
2022-09-22T11:11:16.492Z,100904.63
2022-09-22T11:14:09.968Z,100897.56
2022-09-22T11:16:59.428Z,100888.13
2022-09-22T11:19:33.875Z,100887.19
2022-09-22T11:22:26.651Z,100886.31
2022-09-22T11:25:14.534Z,100891.47
2022-09-22T11:27:56.043Z,100878.50
2022-09-22T11:30:23.191Z,100873.34
2022-09-22T11:33:03.057Z,100885.47
2022-09-22T11:35:49.782Z,100871.00
2022-09-22T11:38:54.295Z,100867.59
2022-09-22T11:41:40.622Z,100869.44
2022-09-22T11:44:29.158Z,100861.50
2022-09-22T11:47:13.269Z,100863.75
2022-09-22T11:49:54.820Z,100856.34
2022-09-22T11:52:21.130Z,100859.50
2022-09-22T11:55:23.416Z,100857.19
2022-09-22T11:57:55.609Z,100861.31
2022-09-22T12:00:22.068Z,100862.78
2022-09-22T12:03:06.436Z,100845.50
2022-09-22T12:05:43.579Z,100844.47
2022-09-22T12:08:16.113Z,100836.16
2022-09-22T12:10:47.039Z,100830.97
2022-09-22T12:13:17.586Z,100827.91
2022-09-22T12:16:08.699Z,100832.25
2022-09-22T12:18:44.810Z,100832.50
2022-09-22T12:21:39.634Z,100826.91
2022-09-22T12:24:11.212Z,100831.09
2022-09-22T12:26:44.552Z,100832.50
2022-09-22T12:29:10.854Z,100829.16
2022-09-22T12:31:42.455Z,100822.03
2022-09-22T12:34:24.522Z,100823.13
2022-09-22T12:36:59.294Z,100831.97
2022-09-22T12:39:28.918Z,100821.19
2022-09-22T12:42:07.398Z,100815.78
2022-09-22T12:45:15.526Z,100806.16
2022-09-22T12:47:47.947Z,100811.97
2022-09-22T12:50:23.452Z,100799.59
2022-09-22T12:52:52.383Z,100797.88
2022-09-22T12:55:21.867Z,100794.56
2022-09-22T12:57:50.694Z,100796.81
2022-09-22T13:00:20.619Z,100783.47
2022-09-22T13:02:49.676Z,100796.72
2022-09-22T13:05:24.872Z,100797.28
2022-09-22T13:07:55.727Z,100796.66
2022-09-22T13:10:25.019Z,100784.94
2022-09-22T13:13:06.630Z,100773.81
2022-09-22T13:15:45.695Z,100777.28
2022-09-22T13:18:41.753Z,100777.78
2022-09-22T13:21:13.830Z,100773.47
2022-09-22T13:23:49.274Z,100759.09
2022-09-22T13:26:16.530Z,100766.69
2022-09-22T13:28:43.150Z,100765.09
2022-09-22T13:31:17.965Z,100761.66
2022-09-22T13:33:44.398Z,100765.22
2022-09-22T13:36:17.335Z,100760.19
2022-09-22T13:38:50.799Z,100756.53
2022-09-22T13:41:23.944Z,100757.72
2022-09-22T13:43:55.949Z,100744.03
2022-09-22T13:46:26.196Z,100749.47
2022-09-22T13:48:56.446Z,100739.03
2022-09-22T13:51:24.851Z,100739.81
2022-09-22T13:53:57.743Z,100735.06
2022-09-22T13:56:25.749Z,100732.16
2022-09-22T13:58:57.006Z,100728.44
2022-09-22T14:01:25.650Z,100727.13
2022-09-22T14:03:53.306Z,100730.69
2022-09-22T14:06:47.253Z,100726.38
2022-09-22T14:09:13.623Z,100726.38
2022-09-22T14:11:40.074Z,100720.13
2022-09-22T14:14:07.848Z,100726.75
2022-09-22T14:16:51.556Z,100717.81
2022-09-22T14:19:22.269Z,100713.28
2022-09-22T14:22:00.769Z,100707.34
2022-09-22T14:24:28.211Z,100707.50
2022-09-22T14:27:04.611Z,100702.47
2022-09-22T14:29:37.319Z,100706.13
2022-09-22T14:32:14.763Z,100699.19
2022-09-22T14:34:47.164Z,100694.56
2022-09-22T14:37:28.076Z,100697.41
2022-09-22T14:39:57.036Z,100688.66
2022-09-22T14:42:28.970Z,100693.84
2022-09-22T14:45:10.455Z,100685.69
2022-09-22T14:47:41.168Z,100685.88
2022-09-22T14:50:37.557Z,100677.78
2022-09-22T14:53:18.977Z,100687.88
2022-09-22T14:55:49.201Z,100676.09
2022-09-22T14:58:24.415Z,100668.66
2022-09-22T15:01:14.701Z,100675.50
2022-09-22T15:03:44.672Z,100676.94
2022-09-22T15:06:14.048Z,100666.88
2022-09-22T15:08:44.434Z,100666.78
2022-09-22T15:11:11.452Z,100667.91
2022-09-22T15:13:45.565Z,100666.69
2022-09-22T15:16:33.674Z,100659.78
2022-09-22T15:19:00.452Z,100668.34
2022-09-22T15:21:29.169Z,100664.84
2022-09-22T15:23:57.860Z,100659.47
2022-09-22T15:26:26.447Z,100665.63
2022-09-22T15:28:55.205Z,100651.75
2022-09-22T15:31:26.780Z,100654.72
2022-09-22T15:33:59.964Z,100646.56
2022-09-22T15:36:27.995Z,100644.09
2022-09-22T15:39:01.018Z,100651.97
2022-09-22T15:41:27.927Z,100644.78
2022-09-22T15:43:54.604Z,100643.44
2022-09-22T15:46:26.498Z,100638.22
2022-09-22T15:48:53.207Z,100641.78
2022-09-22T15:51:19.568Z,100634.28
2022-09-22T15:53:46.026Z,100628.13
2022-09-22T15:56:18.973Z,100636.00
2022-09-22T15:58:45.755Z,100630.22
2022-09-22T16:01:12.133Z,100623.53
2022-09-22T16:03:41.307Z,100635.97
2022-09-22T16:06:15.594Z,100625.63
2022-09-22T16:08:48.035Z,100635.25
2022-09-22T16:11:24.212Z,100622.16
2022-09-22T16:13:50.550Z,100622.84
2022-09-22T16:16:19.246Z,100624.94
2022-09-22T16:18:45.877Z,100624.38
2022-09-22T16:21:29.291Z,100622.97
2022-09-22T16:23:59.500Z,100619.44
2022-09-22T16:26:31.330Z,100623.75
2022-09-22T16:28:58.608Z,100614.28
2022-09-22T16:31:25.760Z,100617.94
2022-09-22T16:33:54.748Z,100613.34
2022-09-22T16:36:21.986Z,100614.03
2022-09-22T16:38:48.725Z,100613.13
2022-09-22T16:41:22.567Z,100603.06
2022-09-22T16:43:49.331Z,100610.31
2022-09-22T16:46:33.652Z,100602.97
2022-09-22T16:49:08.129Z,100610.88
2022-09-22T16:51:37.102Z,100604.25
2022-09-22T16:54:08.352Z,100605.47
2022-09-22T16:56:37.669Z,100612.00
2022-09-22T16:59:04.883Z,100607.69
2022-09-22T17:01:36.219Z,100611.06
2022-09-22T17:04:06.980Z,100616.38
2022-09-22T17:06:35.956Z,100611.16
2022-09-22T17:09:02.353Z,100609.47
2022-09-22T17:11:34.303Z,100608.69
2022-09-22T17:14:05.042Z,100617.00
2022-09-22T17:16:36.708Z,100607.81
2022-09-22T17:19:04.848Z,100619.56
2022-09-22T17:21:34.447Z,100621.72
2022-09-22T17:24:01.983Z,100616.94
2022-09-22T17:26:31.134Z,100609.97
2022-09-22T17:28:59.623Z,100618.66
2022-09-22T17:31:27.655Z,100608.19
2022-09-22T17:33:54.988Z,100610.84
2022-09-22T17:36:23.815Z,100614.69
2022-09-22T17:38:52.957Z,100607.41
2022-09-22T17:41:21.761Z,100606.72
2022-09-22T17:43:55.689Z,100607.47
2022-09-22T17:46:23.468Z,100609.28
2022-09-22T17:49:08.763Z,100619.41
2022-09-22T17:51:57.933Z,100615.28
2022-09-22T17:54:59.653Z,100608.81
2022-09-22T17:57:30.800Z,100614.41
2022-09-22T17:59:58.149Z,100618.66
2022-09-22T18:02:29.942Z,100616.13
2022-09-22T18:04:56.370Z,100620.72
2022-09-22T18:07:25.405Z,100620.16
2022-09-22T18:09:52.313Z,100617.31
2022-09-22T18:12:21.692Z,100610.09
2022-09-22T18:14:50.048Z,100618.03
2022-09-22T18:17:19.708Z,100619.34
2022-09-22T18:19:46.556Z,100620.44
2022-09-22T18:22:16.801Z,100620.81
2022-09-22T18:24:43.980Z,100616.44
2022-09-22T18:27:13.108Z,100622.78
2022-09-22T18:29:39.473Z,100619.75
2022-09-22T18:32:06.081Z,100619.56
2022-09-22T18:34:32.430Z,100622.91
2022-09-22T18:37:00.744Z,100623.16
2022-09-22T18:39:28.471Z,100624.75
2022-09-22T18:41:55.300Z,100625.03
2022-09-22T18:44:22.553Z,100624.72
2022-09-22T18:46:49.161Z,100620.31
2022-09-22T18:49:16.653Z,100625.75
2022-09-22T18:51:49.085Z,100632.97
2022-09-22T18:54:16.910Z,100635.22
2022-09-22T18:56:47.984Z,100631.75
2022-09-22T18:59:19.944Z,100634.41
2022-09-22T19:01:47.489Z,100630.75
2022-09-22T19:04:17.094Z,100640.19
2022-09-22T19:07:03.566Z,100639.19
2022-09-22T19:09:30.135Z,100644.03
2022-09-22T19:11:56.737Z,100635.47
2022-09-22T19:14:23.199Z,100639.34
2022-09-22T19:16:49.824Z,100649.69
2022-09-22T19:19:17.103Z,100643.69
2022-09-22T19:21:43.602Z,100649.16
2022-09-22T19:24:10.480Z,100644.25
2022-09-22T19:26:43.930Z,100640.78
2022-09-22T19:29:12.070Z,100638.69
2022-09-22T19:31:41.195Z,100654.63
2022-09-22T19:34:09.194Z,100652.56
2022-09-22T19:36:36.002Z,100649.50
2022-09-22T19:39:02.437Z,100647.56
2022-09-22T19:41:28.810Z,100648.09
2022-09-22T19:43:56.566Z,100640.75
2022-09-22T19:46:24.366Z,100638.34
2022-09-22T19:48:51.208Z,100646.53
2022-09-22T19:51:17.741Z,100655.53
2022-09-22T19:53:44.175Z,100649.63
2022-09-22T19:56:14.980Z,100648.69
2022-09-22T19:58:41.529Z,100645.22
2022-09-22T20:01:08.393Z,100642.97
2022-09-22T20:03:34.773Z,100644.41
2022-09-22T20:06:01.108Z,100639.75
2022-09-22T20:08:27.535Z,100645.06
2022-09-22T20:11:16.319Z,100642.53
2022-09-22T20:14:00.781Z,100642.81
2022-09-22T20:16:28.086Z,100635.00
2022-09-22T20:18:54.991Z,100638.69
2022-09-22T20:21:21.569Z,100634.41
2022-09-22T20:23:47.922Z,100631.19
2022-09-22T20:26:14.305Z,100632.78
2022-09-22T20:28:41.412Z,100624.34
2022-09-22T20:31:12.052Z,100625.09
2022-09-22T20:33:38.825Z,100624.13
2022-09-22T20:36:05.994Z,100624.34
2022-09-22T20:38:33.709Z,100614.38
2022-09-22T20:41:01.848Z,100622.38
2022-09-22T20:43:28.837Z,100608.41
2022-09-22T20:46:03.561Z,100616.41
2022-09-22T20:48:30.225Z,100614.38
2022-09-22T20:51:02.798Z,100607.38
2022-09-22T20:53:33.227Z,100617.38
2022-09-22T20:56:04.525Z,100617.47
2022-09-22T20:58:32.636Z,100608.53
2022-09-22T21:01:00.649Z,100608.00
2022-09-22T21:03:27.030Z,100611.69
2022-09-22T21:05:58.660Z,100613.47
2022-09-22T21:08:44.193Z,100603.88
2022-09-22T21:11:19.063Z,100605.78
2022-09-22T21:13:45.893Z,100606.63
2022-09-22T21:16:15.693Z,100596.94
2022-09-22T21:18:42.080Z,100604.06
2022-09-22T21:21:08.459Z,100598.97
2022-09-22T21:23:35.233Z,100598.75
2022-09-22T21:26:04.589Z,100602.34
2022-09-22T21:28:31.309Z,100599.19
2022-09-22T21:30:59.513Z,100600.06
2022-09-22T21:33:27.602Z,100593.94
2022-09-22T21:36:09.953Z,100592.22
2022-09-22T21:38:37.017Z,100600.19
2022-09-22T21:41:05.853Z,100588.03
2022-09-22T21:43:32.949Z,100587.81
2022-09-22T21:46:05.202Z,100592.44
2022-09-22T21:48:36.264Z,100585.44
2022-09-22T21:51:08.562Z,100580.28
2022-09-22T21:53:36.361Z,100585.50
2022-09-22T21:56:11.168Z,100583.09
2022-09-22T21:58:40.579Z,100583.22
2022-09-22T22:01:09.214Z,100579.56
2022-09-22T22:03:41.932Z,100572.81
2022-09-22T22:06:28.792Z,100574.69
2022-09-22T22:09:06.643Z,100578.84
2022-09-22T22:11:39.693Z,100575.53
2022-09-22T22:14:08.853Z,100575.53
2022-09-22T22:16:44.168Z,100575.53
2022-09-22T22:19:13.595Z,100574.75
2022-09-22T22:21:41.515Z,100579.28
2022-09-22T22:24:28.401Z,100582.06
2022-09-22T22:27:01.283Z,100574.19
2022-09-22T22:29:31.550Z,100577.91
2022-09-22T22:31:58.555Z,100579.75
2022-09-22T22:34:28.133Z,100578.72
2022-09-22T22:36:55.811Z,100572.63
2022-09-22T22:39:22.221Z,100574.63
2022-09-22T22:41:54.411Z,100570.94
2022-09-22T22:44:21.080Z,100569.31
2022-09-22T22:46:47.592Z,100571.13
2022-09-22T22:49:13.983Z,100574.63
2022-09-22T22:51:45.222Z,100564.97
2022-09-22T22:54:12.561Z,100568.41
2022-09-22T22:56:42.063Z,100571.25
2022-09-22T22:59:10.374Z,100568.59
2022-09-22T23:01:37.337Z,100565.28
2022-09-22T23:04:06.787Z,100564.41
2022-09-22T23:06:39.608Z,100564.38
2022-09-22T23:09:08.339Z,100563.50
2022-09-22T23:11:37.387Z,100552.94
2022-09-22T23:14:06.605Z,100558.41
2022-09-22T23:16:36.638Z,100563.47
2022-09-22T23:19:06.737Z,100559.19
2022-09-22T23:21:33.659Z,100561.03
2022-09-22T23:24:03.697Z,100561.22
2022-09-22T23:26:30.174Z,100560.34
2022-09-22T23:28:58.467Z,100555.97
2022-09-22T23:31:25.609Z,100563.78
2022-09-22T23:33:52.813Z,100557.72
2022-09-22T23:36:24.617Z,100556.88
2022-09-22T23:38:55.229Z,100558.59
2022-09-22T23:41:22.119Z,100560.41
2022-09-22T23:43:48.474Z,100554.91
2022-09-22T23:46:15.046Z,100553.19
2022-09-22T23:48:41.520Z,100553.19
2022-09-22T23:51:07.923Z,100551.69
2022-09-22T23:53:36.625Z,100557.97
2022-09-22T23:56:05.535Z,100549.25
2022-09-22T23:58:32.956Z,100547.47
